| time (UTC) | temp F | wind direction | speed MPH | gust MPH | rain 1hr in | rain 24hr in | rain mn in | humidity % | barometer mb |
| 20260507160042 | 68 | 360 | 0.0 | 1.0 | 0.00 | 0.00 | 0.00 | 70 | 1011.5 |
| 20260507154531 | 71 | 360 | 1.0 | 4.0 | 0.00 | 0.00 | 0.00 | 64 | 1011.4 |
| 20260507153030 | 70 | 78 | 0.0 | 6.0 | 0.00 | 0.00 | 0.00 | 69 | 1011.6 |
| 20260507151526 | 69 | 360 | 0.0 | 5.0 | 0.00 | 0.00 | 0.00 | 65 | 1011.7 |
| 20260507150028 | 69 | 360 | 0.0 | 2.0 | 0.00 | 0.00 | 0.00 | 66 | 1011.7 |
| 20260507144533 | 70 | 360 | 0.0 | 5.0 | 0.00 | 0.00 | 0.00 | 63 | 1011.9 |
| 20260507143025 | 69 | 360 | 2.0 | 4.0 | 0.00 | 0.00 | 0.00 | 67 | 1011.7 |
| 20260507141524 | 68 | 360 | 0.0 | 3.0 | 0.00 | 0.00 | 0.00 | 64 | 1011.8 |
| 20260507140023 | 68 | 104 | 0.0 | 3.0 | 0.00 | 0.00 | 0.00 | 63 | 1011.8 |
| 20260507134523 | 69 | 75 | 0.0 | 4.0 | 0.00 | 0.00 | 0.00 | 58 | 1012.0 |
| 20260507133023 | 70 | 49 | 1.0 | 7.0 | 0.00 | 0.00 | 0.00 | 60 | 1011.9 |
| 20260507131522 | 68 | 71 | 1.0 | 4.0 | 0.00 | 0.00 | 0.00 | 63 | 1012.0 |
| 20260507130026 | 67 | 30 | 0.0 | 3.0 | 0.00 | 0.00 | 0.00 | 62 | 1012.0 |
| 20260507124536 | 67 | 62 | 1.0 | 3.0 | 0.00 | 0.02 | 0.00 | 59 | 1012.0 |
| 20260507123022 | 70 | 61 | 2.0 | 7.0 | 0.00 | 0.02 | 0.00 | 53 | 1012.1 |
| 20260507121520 | 70 | 21 | 1.0 | 5.0 | 0.00 | 0.02 | 0.00 | 58 | 1012.1 |
| 20260507120019 | 69 | 27 | 1.0 | 8.0 | 0.00 | 0.02 | 0.00 | 58 | 1012.2 |
| 20260507114518 | 70 | 123 | 1.0 | 5.0 | 0.00 | 0.15 | 0.00 | 61 | 1012.3 |
| 20260507113019 | 69 | 105 | 1.0 | 4.0 | 0.00 | 0.15 | 0.00 | 56 | 1012.4 |
| 20260507111517 | 68 | 31 | 0.0 | 5.0 | 0.00 | 0.15 | 0.00 | 58 | 1012.6 |
| 20260507110113 | 68 | 215 | 2.0 | 4.0 | 0.00 | 0.15 | 0.00 | 53 | 1012.7 |
| 20260507104611 | 69 | 294 | 0.0 | 5.0 | 0.00 | 0.15 | 0.00 | 58 | 1012.9 |
| 20260507103006 | 68 | 108 | 0.0 | 4.0 | 0.00 | 0.15 | 0.00 | 59 | 1013.0 |
| 20260507101502 | 66 | 90 | 2.0 | 6.0 | 0.00 | 0.15 | 0.00 | 57 | 1013.2 |
| 20260507100003 | 66 | 282 | 1.0 | 6.0 | 0.00 | 0.15 | 0.00 | 61 | 1013.2 |
| 20260507094558 | 67 | 277 | 1.0 | 4.0 | 0.00 | 0.15 | 0.00 | 67 | 1013.2 |
| 20260507093055 | 66 | 227 | 0.0 | 6.0 | 0.00 | 0.15 | 0.00 | 63 | 1013.2 |
| 20260507091550 | 66 | 360 | 0.0 | 3.0 | 0.00 | 0.15 | 0.00 | 59 | 1013.1 |
| 20260507090047 | 66 | 298 | 1.0 | 4.0 | 0.00 | 0.15 | 0.00 | 62 | 1013.1 |
| 20260507084544 | 66 | 275 | 1.0 | 3.0 | 0.00 | 0.17 | 0.00 | 64 | 1013.0 |
| 20260507083039 | 64 | 345 | 2.0 | 5.0 | 0.00 | 0.17 | 0.00 | 63 | 1012.9 |
| 20260507081535 | 64 | 350 | 0.0 | 4.0 | 0.00 | 0.17 | 0.00 | 62 | 1012.9 |
| 20260507080031 | 63 | 360 | 0.0 | 2.0 | 0.00 | 0.17 | 0.00 | 65 | 1012.8 |
| 20260507074528 | 60 | 360 | 0.0 | 0.0 | 0.00 | 0.30 | 0.00 | 68 | 1012.8 |
| 20260507073022 | 59 | 163 | 0.0 | 0.0 | 0.00 | 0.30 | 0.00 | 68 | 1012.7 |
| 20260507071519 | 58 | 169 | 0.0 | 2.0 | 0.00 | 0.30 | 0.00 | 72 | 1012.6 |
| 20260507070015 | 57 | 169 | 0.0 | 2.0 | 0.00 | 0.30 | 0.00 | 74 | 1012.5 |
| 20260506234502 | 53 | 97 | 1.0 | 4.0 | 0.00 | 1.60 | 0.00 | 81 | 1010.8 |
| 20260506233112 | 53 | 126 | 0.0 | 2.0 | 0.00 | 1.60 | 0.00 | 80 | 1010.7 |
| 20260506231613 | 54 | 126 | 1.0 | 3.0 | 0.00 | 1.60 | 0.00 | 78 | 1010.8 |
| 20260506230104 | 53 | 82 | 1.0 | 3.0 | 0.00 | 1.60 | 0.00 | 80 | 1011.0 |
| 20260506224555 | 54 | 81 | 1.0 | 3.0 | 0.00 | 1.60 | 0.00 | 80 | 1011.0 |
| 20260506223052 | 54 | 82 | 1.0 | 3.0 | 0.00 | 1.60 | 0.00 | 79 | 1011.0 |
| 20260506221555 | 54 | 88 | 0.0 | 3.0 | 0.00 | 1.60 | 0.00 | 79 | 1010.9 |
| 20260506220048 | 54 | 85 | 1.0 | 3.0 | 0.00 | 1.60 | 0.00 | 80 | 1010.7 |
| 20260506214550 | 53 | 94 | 1.0 | 4.0 | 0.00 | 1.60 | 1.60 | 82 | 1010.7 |
| 20260506213045 | 54 | 304 | 0.0 | 3.0 | 0.00 | 1.60 | 1.60 | 81 | 1010.6 |
| 20260506211545 | 54 | 306 | 0.0 | 0.0 | 0.00 | 1.60 | 1.60 | 81 | 1010.5 |
| 20260506210045 | 54 | 306 | 0.0 | 0.0 | 0.00 | 1.60 | 1.60 | 80 | 1010.5 |
| 20260506204544 | 55 | 306 | 0.0 | 0.0 | 0.00 | 1.60 | 1.60 | 76 | 1010.3 |
| 20260506203044 | 57 | 306 | 0.0 | 2.0 | 0.00 | 1.60 | 1.60 | 75 | 1010.2 |
| 20260506201543 | 57 | 298 | 1.0 | 4.0 | 0.00 | 1.60 | 1.60 | 74 | 1010.1 |
| 20260506200046 | 57 | 114 | 1.0 | 9.0 | 0.00 | 1.60 | 1.60 | 73 | 1009.9 |
| 20260506194548 | 58 | 348 | 1.0 | 5.0 | 0.00 | 1.60 | 1.60 | 72 | 1009.6 |
| 20260506193042 | 57 | 197 | 2.0 | 9.0 | 0.00 | 1.60 | 1.60 | 72 | 1009.3 |
| 20260506191541 | 57 | 308 | 1.0 | 4.0 | 0.00 | 1.60 | 1.60 | 73 | 1009.2 |
| 20260506190040 | 57 | 241 | 1.0 | 8.0 | 0.00 | 1.60 | 1.60 | 73 | 1009.0 |
| 20260506184540 | 57 | 309 | 1.0 | 4.0 | 0.00 | 1.60 | 1.60 | 73 | 1008.7 |
| 20260506183039 | 58 | 142 | 0.0 | 3.0 | 0.00 | 1.60 | 1.60 | 70 | 1008.9 |
| 20260506181538 | 59 | 142 | 1.0 | 5.0 | 0.00 | 1.60 | 1.60 | 70 | 1008.7 |
| 20260506180041 | 59 | 116 | 0.0 | 6.0 | 0.00 | 1.60 | 1.60 | 71 | 1008.5 |
| 20260506174536 | 58 | 134 | 0.0 | 8.0 | 0.00 | 1.60 | 1.60 | 72 | 1008.4 |
| 20260506173042 | 59 | 182 | 1.0 | 4.0 | 0.00 | 1.60 | 1.60 | 75 | 1008.2 |
| 20260506171533 | 59 | 331 | 0.0 | 2.0 | 0.00 | 1.60 | 1.60 | 79 | 1008.3 |
| 20260506170032 | 60 | 188 | 0.0 | 0.0 | 0.00 | 1.60 | 1.60 | 81 | 1008.2 |
| 20260506164537 | 60 | 188 | 0.0 | 0.0 | 0.00 | 1.60 | 1.60 | 80 | 1008.1 |
| 20260506163032 | 61 | 188 | 0.0 | 2.0 | 0.00 | 1.60 | 1.60 | 79 | 1008.1 |
| 20260506161533 | 62 | 174 | 0.0 | 4.0 | 0.00 | 1.60 | 1.60 | 76 | 1008.1 |